createdAt,value
2017-12-06T00:00:52.402Z,10.80
2017-12-06T00:03:19.996Z,11.00
2017-12-06T00:05:47.568Z,12.00
2017-12-06T00:08:15.161Z,9.30
2017-12-06T00:10:42.713Z,10.23
2017-12-06T00:13:16.119Z,8.13
2017-12-06T00:15:43.705Z,10.00
2017-12-06T00:18:11.332Z,11.43
2017-12-06T00:20:38.956Z,9.93
2017-12-06T00:23:06.599Z,10.37
2017-12-06T00:25:34.207Z,12.50
2017-12-06T00:28:01.818Z,10.33
2017-12-06T00:30:29.406Z,10.07
2017-12-06T00:32:56.972Z,10.93
2017-12-06T00:35:24.568Z,9.50
2017-12-06T00:37:52.180Z,9.60
2017-12-06T00:40:19.793Z,10.60
2017-12-06T00:42:51.792Z,10.27
2017-12-06T00:45:20.205Z,10.17
2017-12-06T00:47:54.540Z,10.17
2017-12-06T00:50:22.157Z,11.40
2017-12-06T00:52:50.568Z,9.63
2017-12-06T00:55:18.546Z,11.47
2017-12-06T00:57:46.173Z,10.80
2017-12-06T01:00:15.477Z,11.40
2017-12-06T01:02:43.044Z,10.77
2017-12-06T01:05:10.818Z,10.47
2017-12-06T01:07:38.401Z,11.67
2017-12-06T01:10:05.988Z,10.53
2017-12-06T01:12:43.443Z,11.80
2017-12-06T01:15:12.449Z,11.53
2017-12-06T01:17:40.080Z,11.33
2017-12-06T01:20:07.639Z,11.43
2017-12-06T01:22:35.221Z,12.23
2017-12-06T01:25:02.790Z,10.53
2017-12-06T01:27:30.360Z,10.90
2017-12-06T01:29:57.953Z,10.40
2017-12-06T01:32:25.585Z,11.17
2017-12-06T01:34:53.229Z,11.10
2017-12-06T01:37:20.864Z,12.30
2017-12-06T01:39:48.425Z,12.17
2017-12-06T01:42:15.996Z,11.20
2017-12-06T01:44:43.654Z,10.27
2017-12-06T01:47:11.343Z,11.70
2017-12-06T01:49:38.901Z,9.53
2017-12-06T01:52:06.502Z,10.50
2017-12-06T01:54:34.504Z,10.80
2017-12-06T01:57:02.611Z,10.57
2017-12-06T01:59:30.248Z,11.57
2017-12-06T02:01:57.835Z,10.77
2017-12-06T02:04:25.384Z,11.17
2017-12-06T02:06:52.971Z,10.80
2017-12-06T02:09:20.555Z,9.90
2017-12-06T02:11:48.112Z,10.30
2017-12-06T02:14:15.705Z,9.87
2017-12-06T02:16:43.315Z,11.00
2017-12-06T02:19:11.097Z,10.97
2017-12-06T02:21:38.688Z,11.17
2017-12-06T02:24:06.278Z,9.13
2017-12-06T02:26:33.856Z,11.87
2017-12-06T02:29:01.475Z,11.47
2017-12-06T02:31:29.093Z,10.93
2017-12-06T02:33:56.654Z,10.80
2017-12-06T02:36:24.277Z,10.77
2017-12-06T02:38:51.929Z,11.60
2017-12-06T02:41:31.288Z,10.40
2017-12-06T02:44:10.527Z,11.77
2017-12-06T02:46:38.095Z,10.10
2017-12-06T02:49:05.746Z,11.20
2017-12-06T02:51:33.595Z,10.50
2017-12-06T02:54:01.147Z,12.50
2017-12-06T02:56:28.712Z,10.90
2017-12-06T02:58:56.280Z,11.07
2017-12-06T03:01:23.847Z,9.37
2017-12-06T03:03:51.612Z,11.17
2017-12-06T03:06:19.158Z,9.87
2017-12-06T03:08:46.737Z,12.13
2017-12-06T03:11:14.350Z,10.80
2017-12-06T03:13:41.934Z,12.43
2017-12-06T03:16:09.503Z,12.00
2017-12-06T03:18:37.084Z,10.10
2017-12-06T03:21:04.660Z,10.47
2017-12-06T03:23:32.411Z,11.63
2017-12-06T03:25:59.967Z,11.40
2017-12-06T03:28:29.003Z,12.37
2017-12-06T03:30:56.923Z,9.40
2017-12-06T03:33:24.464Z,11.37
2017-12-06T03:35:52.044Z,10.27
2017-12-06T03:38:19.606Z,10.53
2017-12-06T03:40:47.154Z,11.30
2017-12-06T03:43:14.824Z,11.40
2017-12-06T03:45:42.418Z,10.87
2017-12-06T03:48:09.976Z,10.83
2017-12-06T03:50:37.561Z,8.90
2017-12-06T03:53:05.106Z,10.87
2017-12-06T03:55:32.661Z,10.20
2017-12-06T03:58:00.281Z,10.30
2017-12-06T04:00:28.224Z,11.00
2017-12-06T04:02:55.766Z,10.30
2017-12-06T04:05:23.397Z,10.77
2017-12-06T04:07:50.941Z,10.90
2017-12-06T04:10:18.524Z,11.70
2017-12-06T04:12:46.113Z,12.93
2017-12-06T04:15:13.683Z,10.90
2017-12-06T04:17:41.273Z,9.87
2017-12-06T04:20:08.856Z,10.30
2017-12-06T04:22:36.417Z,11.27
2017-12-06T04:25:03.976Z,11.03
2017-12-06T04:27:31.583Z,13.27
2017-12-06T04:29:59.157Z,12.37
2017-12-06T04:32:26.760Z,12.30
2017-12-06T04:34:54.312Z,13.27
2017-12-06T04:37:21.873Z,12.10
2017-12-06T04:39:49.423Z,12.20
2017-12-06T04:42:17.030Z,14.10
2017-12-06T04:44:44.608Z,13.60
2017-12-06T04:47:12.384Z,14.30
2017-12-06T04:49:39.977Z,12.17
2017-12-06T04:52:07.573Z,12.43
2017-12-06T04:54:35.136Z,11.70
2017-12-06T04:57:02.717Z,11.67
2017-12-06T04:59:30.540Z,11.33
2017-12-06T05:01:58.090Z,12.07
2017-12-06T05:04:25.745Z,10.33
2017-12-06T05:06:53.322Z,10.10
2017-12-06T05:09:20.886Z,13.63
2017-12-06T05:11:48.504Z,10.37
2017-12-06T05:14:16.091Z,13.40
2017-12-06T05:16:43.636Z,10.40
2017-12-06T05:19:11.317Z,12.53
2017-12-06T05:21:39.113Z,9.70
2017-12-06T05:24:06.716Z,10.57
2017-12-06T05:26:34.279Z,11.63
2017-12-06T05:29:01.882Z,10.97
2017-12-06T05:31:29.604Z,13.13
2017-12-06T05:33:57.213Z,12.53
2017-12-06T05:36:24.825Z,13.03
2017-12-06T05:38:52.428Z,11.90
2017-12-06T05:41:19.987Z,12.40
2017-12-06T05:43:47.552Z,10.80
2017-12-06T05:46:15.108Z,11.37
2017-12-06T05:48:42.697Z,9.47
2017-12-06T05:51:10.245Z,11.37
2017-12-06T05:53:37.889Z,10.50
2017-12-06T05:56:05.475Z,11.57
2017-12-06T05:58:33.087Z,9.73
2017-12-06T06:01:00.657Z,10.87
2017-12-06T06:03:28.282Z,10.93
2017-12-06T06:05:55.842Z,10.60
2017-12-06T06:08:23.382Z,10.80
2017-12-06T06:10:50.971Z,12.23
2017-12-06T06:13:18.544Z,12.50
2017-12-06T06:15:46.110Z,11.40
2017-12-06T06:18:13.717Z,11.53
2017-12-06T06:20:41.352Z,10.63
2017-12-06T06:23:09.103Z,12.60
2017-12-06T06:25:36.695Z,12.73
2017-12-06T06:28:04.298Z,10.70
2017-12-06T06:30:31.876Z,11.70
2017-12-06T06:32:59.429Z,11.83
2017-12-06T06:35:27.006Z,11.70
2017-12-06T06:37:54.556Z,10.03
2017-12-06T06:40:22.141Z,10.53
2017-12-06T06:42:49.709Z,11.93
2017-12-06T06:45:17.287Z,11.40
2017-12-06T06:47:44.847Z,11.37
2017-12-06T06:50:12.449Z,11.23
2017-12-06T06:52:40.059Z,11.20
2017-12-06T06:55:07.647Z,13.13
2017-12-06T06:57:35.229Z,12.63
2017-12-06T07:00:02.906Z,11.33
2017-12-06T07:02:32.116Z,11.17
2017-12-06T07:05:01.481Z,9.70
2017-12-06T07:07:29.068Z,9.20
2017-12-06T07:09:56.633Z,11.03
2017-12-06T07:12:24.212Z,12.07
2017-12-06T07:14:51.822Z,10.43
2017-12-06T07:17:19.505Z,12.13
2017-12-06T07:19:50.285Z,11.63
2017-12-06T07:22:17.881Z,9.77
2017-12-06T07:24:45.678Z,10.87
2017-12-06T07:27:13.293Z,10.80
2017-12-06T07:29:40.881Z,10.03
2017-12-06T07:32:08.464Z,11.17
2017-12-06T07:34:36.326Z,11.03
2017-12-06T07:37:05.567Z,10.27
2017-12-06T07:39:33.241Z,9.60
2017-12-06T07:42:01.387Z,10.70
2017-12-06T07:44:28.975Z,10.30
2017-12-06T07:46:56.793Z,9.97
2017-12-06T07:49:24.337Z,9.43
2017-12-06T07:51:51.899Z,11.10
2017-12-06T07:54:19.453Z,9.00
2017-12-06T07:56:46.996Z,10.63
2017-12-06T07:59:15.922Z,9.87
2017-12-06T08:01:43.496Z,9.77
2017-12-06T08:04:11.051Z,10.83
2017-12-06T08:06:38.636Z,9.80
2017-12-06T08:09:06.622Z,13.07
2017-12-06T08:11:34.163Z,10.97
2017-12-06T08:14:01.750Z,12.00
2017-12-06T08:16:29.540Z,10.80
2017-12-06T08:18:57.091Z,9.13
2017-12-06T08:21:24.686Z,11.63
2017-12-06T08:23:52.268Z,10.60
2017-12-06T08:26:19.841Z,10.67
2017-12-06T08:28:47.490Z,11.57
2017-12-06T08:31:15.042Z,11.10
2017-12-06T08:33:42.668Z,11.27
2017-12-06T08:36:10.210Z,10.83
2017-12-06T08:38:37.805Z,10.60
2017-12-06T08:41:05.970Z,10.27
2017-12-06T08:43:33.534Z,10.60
2017-12-06T08:46:01.099Z,10.20
2017-12-06T08:48:28.902Z,9.07
2017-12-06T08:50:56.506Z,10.23
2017-12-06T08:53:24.066Z,10.20
2017-12-06T08:55:51.633Z,10.60
2017-12-06T08:58:19.223Z,9.20
2017-12-06T09:00:46.778Z,9.70
2017-12-06T09:03:14.344Z,9.80
2017-12-06T09:05:41.909Z,9.50
2017-12-06T09:08:09.537Z,10.57
2017-12-06T09:10:37.127Z,9.03
2017-12-06T09:13:04.717Z,11.30
2017-12-06T09:15:32.247Z,9.93
2017-12-06T09:17:59.834Z,10.30
2017-12-06T09:20:27.454Z,8.87
2017-12-06T09:22:55.072Z,9.57
2017-12-06T09:25:22.682Z,8.70
2017-12-06T09:27:50.221Z,9.20
2017-12-06T09:30:17.811Z,9.00
2017-12-06T09:32:45.381Z,10.30
2017-12-06T09:35:13.120Z,10.03
2017-12-06T09:37:40.760Z,8.60
2017-12-06T09:40:08.310Z,9.60
2017-12-06T09:42:35.897Z,8.23
2017-12-06T09:45:03.880Z,10.00
2017-12-06T09:47:31.454Z,10.17
2017-12-06T09:49:58.995Z,9.87
2017-12-06T09:52:26.557Z,9.20
2017-12-06T09:54:54.097Z,9.60
2017-12-06T09:57:21.692Z,8.17
2017-12-06T09:59:49.231Z,9.10
2017-12-06T10:02:16.794Z,9.60
2017-12-06T10:04:44.368Z,9.27
2017-12-06T10:07:11.924Z,10.00
2017-12-06T10:09:39.505Z,8.73
2017-12-06T10:12:07.061Z,8.50
2017-12-06T10:14:34.611Z,8.90
2017-12-06T10:17:02.173Z,10.50
2017-12-06T10:19:29.746Z,8.70
2017-12-06T10:21:57.311Z,7.73
2017-12-06T10:24:25.122Z,8.20
2017-12-06T10:26:52.732Z,9.47
2017-12-06T10:29:20.318Z,11.33
2017-12-06T10:31:47.898Z,10.50
2017-12-06T10:34:15.447Z,11.00
2017-12-06T10:36:43.069Z,9.87
2017-12-06T10:39:10.797Z,10.67
2017-12-06T10:41:38.351Z,17.60
2017-12-06T10:44:05.917Z,9.70
2017-12-06T10:46:33.520Z,13.33
2017-12-06T10:49:01.062Z,10.47
2017-12-06T10:51:28.612Z,10.70
2017-12-06T10:53:56.222Z,10.60
2017-12-06T10:56:24.634Z,10.23
2017-12-06T10:58:52.190Z,10.53
2017-12-06T11:01:19.830Z,10.40
2017-12-06T11:03:47.417Z,10.50
2017-12-06T11:06:14.956Z,11.20
2017-12-06T11:08:42.575Z,11.93
2017-12-06T11:11:10.260Z,9.73
2017-12-06T11:13:37.876Z,10.63
2017-12-06T11:16:05.479Z,11.33
2017-12-06T11:18:33.053Z,11.10
2017-12-06T11:21:00.614Z,10.50
2017-12-06T11:23:28.176Z,10.50
2017-12-06T11:25:55.743Z,11.43
2017-12-06T11:28:23.291Z,12.40
2017-12-06T11:30:50.858Z,12.13
2017-12-06T11:33:18.464Z,10.80
2017-12-06T11:35:46.025Z,12.50
2017-12-06T11:38:13.567Z,10.80
2017-12-06T11:40:41.164Z,10.83
2017-12-06T11:43:08.908Z,11.50
2017-12-06T11:45:37.120Z,12.93
2017-12-06T11:48:04.706Z,11.70
2017-12-06T11:50:32.304Z,11.07
2017-12-06T11:53:00.079Z,11.23
2017-12-06T11:55:27.645Z,10.10
2017-12-06T11:57:56.001Z,12.73
2017-12-06T12:00:23.574Z,10.17
2017-12-06T12:02:51.153Z,11.20
2017-12-06T12:05:18.744Z,11.03
2017-12-06T12:07:46.290Z,10.30
2017-12-06T12:10:20.060Z,11.10
2017-12-06T12:12:48.240Z,10.90
2017-12-06T12:15:16.160Z,10.77
2017-12-06T12:17:44.109Z,11.70
2017-12-06T12:20:11.688Z,9.70
2017-12-06T12:22:39.237Z,11.07
2017-12-06T12:25:06.836Z,10.77
2017-12-06T12:27:34.825Z,10.50
2017-12-06T12:30:02.385Z,11.03
2017-12-06T12:32:29.951Z,11.30
2017-12-06T12:34:57.519Z,11.80
2017-12-06T12:37:25.073Z,10.83
2017-12-06T12:39:52.655Z,9.20
2017-12-06T12:42:20.249Z,11.37
2017-12-06T12:44:47.802Z,9.93
2017-12-06T12:47:15.359Z,11.13
2017-12-06T12:49:42.965Z,12.30
2017-12-06T12:52:10.558Z,9.90
2017-12-06T12:54:38.169Z,10.77
2017-12-06T12:57:05.741Z,11.60
2017-12-06T12:59:33.327Z,10.33
2017-12-06T13:02:00.910Z,11.50
2017-12-06T13:04:28.515Z,10.53
2017-12-06T13:06:56.079Z,11.03
2017-12-06T13:09:23.685Z,9.23
2017-12-06T13:11:51.240Z,9.43
2017-12-06T13:14:18.838Z,10.00
2017-12-06T13:16:46.429Z,10.73
2017-12-06T13:19:14.014Z,10.07
2017-12-06T13:21:41.576Z,10.03
2017-12-06T13:24:09.205Z,10.13
2017-12-06T13:26:36.772Z,9.80
2017-12-06T13:29:04.415Z,8.40
2017-12-06T13:31:32.265Z,10.30
2017-12-06T13:33:59.821Z,10.23
2017-12-06T13:36:27.382Z,10.93
2017-12-06T13:38:54.947Z,9.73
2017-12-06T13:41:22.565Z,10.00
2017-12-06T13:43:50.137Z,10.03
2017-12-06T13:46:17.725Z,10.03
2017-12-06T13:48:45.308Z,9.40
2017-12-06T13:51:12.869Z,9.80
2017-12-06T13:53:40.455Z,10.47
2017-12-06T13:56:08.003Z,9.57
2017-12-06T13:58:35.568Z,10.93
2017-12-06T14:01:03.178Z,10.40
2017-12-06T14:03:30.757Z,10.60
2017-12-06T14:05:58.364Z,10.10
2017-12-06T14:08:25.989Z,8.93
2017-12-06T14:10:53.537Z,11.43
2017-12-06T14:13:21.130Z,9.70
2017-12-06T14:15:48.704Z,9.30
2017-12-06T14:18:16.278Z,10.13
2017-12-06T14:20:43.882Z,11.50
2017-12-06T14:23:11.515Z,10.43
2017-12-06T14:25:39.070Z,10.93
2017-12-06T14:28:10.320Z,11.03
2017-12-06T14:30:39.399Z,9.30
2017-12-06T14:33:07.040Z,9.50
2017-12-06T14:35:35.552Z,10.67
2017-12-06T14:38:03.124Z,11.20
2017-12-06T14:40:31.070Z,9.40
2017-12-06T14:42:58.635Z,10.40
2017-12-06T14:45:26.120Z,10.07
2017-12-06T14:47:54.072Z,9.20
2017-12-06T14:50:22.100Z,9.40
2017-12-06T14:52:50.048Z,10.73
2017-12-06T14:55:18.087Z,9.93
2017-12-06T14:57:46.118Z,10.57
2017-12-06T15:00:13.786Z,10.30
2017-12-06T15:02:41.364Z,10.20
2017-12-06T15:05:08.950Z,9.57
2017-12-06T15:07:36.529Z,11.60
2017-12-06T15:10:04.156Z,10.20
2017-12-06T15:12:37.730Z,11.60
2017-12-06T15:14:59.926Z,11.93
2017-12-06T15:17:27.502Z,10.30
2017-12-06T15:19:55.158Z,10.43
2017-12-06T15:22:22.729Z,10.23
2017-12-06T15:24:50.306Z,12.73
2017-12-06T15:27:17.900Z,10.60
2017-12-06T15:29:45.455Z,10.10
2017-12-06T15:32:13.065Z,10.93
2017-12-06T15:34:40.673Z,10.70
2017-12-06T15:37:08.668Z,11.37
2017-12-06T15:39:36.296Z,10.30
2017-12-06T15:42:04.760Z,10.17
2017-12-06T15:44:32.315Z,9.87
2017-12-06T15:46:59.918Z,9.93
2017-12-06T15:49:27.486Z,9.90
2017-12-06T15:51:55.765Z,10.10
2017-12-06T15:54:23.375Z,10.63
2017-12-06T15:56:50.976Z,9.60
2017-12-06T15:59:18.576Z,9.70
2017-12-06T16:01:46.196Z,12.70
2017-12-06T16:04:14.065Z,10.90
2017-12-06T16:06:41.739Z,10.77
2017-12-06T16:09:09.394Z,9.87
2017-12-06T16:11:37.002Z,9.27
2017-12-06T16:14:04.584Z,10.27
2017-12-06T16:16:32.136Z,10.20
2017-12-06T16:18:59.730Z,10.17
2017-12-06T16:21:27.399Z,10.53
2017-12-06T16:23:55.298Z,10.03
2017-12-06T16:26:22.961Z,10.93
2017-12-06T16:28:50.559Z,10.90
2017-12-06T16:31:18.791Z,12.03
2017-12-06T16:33:46.449Z,9.97
2017-12-06T16:36:25.707Z,10.90
2017-12-06T16:38:53.796Z,10.33
2017-12-06T16:41:21.504Z,10.20
2017-12-06T16:43:49.131Z,10.50
2017-12-06T16:46:16.708Z,9.63
2017-12-06T16:48:44.291Z,11.13
2017-12-06T16:51:12.107Z,11.53
2017-12-06T16:53:39.690Z,11.33
2017-12-06T16:56:07.365Z,9.27
2017-12-06T16:58:35.035Z,10.53
2017-12-06T17:01:02.598Z,10.03
2017-12-06T17:03:30.274Z,11.40
2017-12-06T17:05:57.929Z,11.70
2017-12-06T17:08:25.525Z,9.93
2017-12-06T17:10:53.288Z,10.57
2017-12-06T17:13:20.945Z,11.73
2017-12-06T17:15:48.500Z,11.07
2017-12-06T17:18:16.927Z,11.27
2017-12-06T17:20:44.548Z,11.10
2017-12-06T17:23:13.254Z,11.53
2017-12-06T17:25:40.918Z,10.40
2017-12-06T17:28:08.586Z,10.83
2017-12-06T17:30:47.933Z,10.47
2017-12-06T17:33:15.693Z,11.40
2017-12-06T17:35:43.295Z,11.27
2017-12-06T17:38:10.925Z,10.93
2017-12-06T17:40:38.580Z,10.40
2017-12-06T17:43:06.244Z,13.73
2017-12-06T17:45:33.821Z,10.87
2017-12-06T17:48:01.419Z,10.43
2017-12-06T17:50:29.201Z,11.50
2017-12-06T17:52:56.765Z,11.00
2017-12-06T17:55:24.336Z,12.47
2017-12-06T17:57:51.917Z,10.20
2017-12-06T18:00:19.485Z,13.53
2017-12-06T18:02:47.696Z,13.00
2017-12-06T18:05:15.310Z,12.60
2017-12-06T18:07:42.900Z,12.73
2017-12-06T18:10:10.463Z,12.47
2017-12-06T18:12:38.036Z,11.67
2017-12-06T18:15:05.670Z,10.73
2017-12-06T18:17:33.236Z,12.03
2017-12-06T18:20:00.799Z,11.93
2017-12-06T18:22:28.408Z,11.67
2017-12-06T18:24:55.964Z,11.80
2017-12-06T18:27:23.535Z,12.37
2017-12-06T18:29:51.156Z,11.60
2017-12-06T18:32:18.827Z,11.83
2017-12-06T18:34:46.505Z,11.97
2017-12-06T18:37:14.324Z,11.50
2017-12-06T18:39:41.926Z,13.30
2017-12-06T18:42:09.521Z,10.23
2017-12-06T18:44:37.201Z,10.93
2017-12-06T18:47:04.797Z,11.60
2017-12-06T18:49:32.476Z,11.10
2017-12-06T18:52:00.278Z,11.20
2017-12-06T18:54:27.838Z,11.10
2017-12-06T18:56:55.638Z,11.40
2017-12-06T18:59:23.862Z,14.37
2017-12-06T19:01:51.602Z,12.53
2017-12-06T19:04:19.240Z,12.33
2017-12-06T19:06:46.811Z,12.40
2017-12-06T19:09:14.427Z,12.53
2017-12-06T19:11:41.987Z,12.23
2017-12-06T19:14:09.564Z,13.47
2017-12-06T19:16:37.218Z,13.20
2017-12-06T19:19:05.304Z,12.93
2017-12-06T19:21:32.860Z,12.67
2017-12-06T19:24:00.415Z,12.57
2017-12-06T19:26:27.971Z,11.00
2017-12-06T19:28:55.666Z,12.10
2017-12-06T19:31:23.256Z,12.20
2017-12-06T19:33:50.852Z,12.70
2017-12-06T19:36:18.390Z,12.10
2017-12-06T19:38:45.929Z,13.10
2017-12-06T19:41:13.613Z,11.73
2017-12-06T19:43:41.235Z,11.00
2017-12-06T19:46:08.817Z,11.30
2017-12-06T19:48:36.389Z,11.70
2017-12-06T19:51:03.990Z,10.47
2017-12-06T19:53:31.565Z,13.03
2017-12-06T19:56:03.750Z,11.53
2017-12-06T19:58:32.262Z,12.10
2017-12-06T20:01:00.134Z,10.90
2017-12-06T20:03:27.682Z,12.43
2017-12-06T20:05:55.268Z,11.70
2017-12-06T20:08:23.149Z,12.67
2017-12-06T20:10:50.736Z,12.03
2017-12-06T20:13:18.306Z,12.83
2017-12-06T20:15:45.856Z,12.00
2017-12-06T20:18:13.446Z,12.67
2017-12-06T20:20:41.034Z,11.90
2017-12-06T20:23:08.775Z,16.70
2017-12-06T20:25:36.573Z,13.50
2017-12-06T20:28:04.144Z,17.50
2017-12-06T20:30:31.746Z,11.70
2017-12-06T20:32:59.355Z,12.90
2017-12-06T20:35:26.957Z,12.90
2017-12-06T20:37:54.545Z,12.70
2017-12-06T20:40:22.381Z,12.17
2017-12-06T20:42:49.938Z,14.13
2017-12-06T20:45:17.508Z,14.00
2017-12-06T20:47:45.095Z,14.50
2017-12-06T20:50:12.723Z,14.27
2017-12-06T20:52:40.273Z,14.77
2017-12-06T20:55:07.889Z,14.00
2017-12-06T20:57:35.458Z,13.93
2017-12-06T21:00:03.164Z,14.67
2017-12-06T21:02:31.073Z,15.20
2017-12-06T21:04:58.722Z,15.40
2017-12-06T21:07:26.309Z,13.47
2017-12-06T21:09:53.905Z,13.47
2017-12-06T21:12:21.481Z,14.60
2017-12-06T21:14:49.109Z,14.33
2017-12-06T21:17:16.680Z,13.70
2017-12-06T21:19:44.309Z,14.30
2017-12-06T21:22:11.956Z,14.40
2017-12-06T21:24:39.589Z,13.93
2017-12-06T21:27:07.626Z,15.50
2017-12-06T21:29:35.240Z,15.77
2017-12-06T21:32:02.962Z,15.67
2017-12-06T21:34:30.626Z,14.83
2017-12-06T21:36:58.323Z,15.67
2017-12-06T21:39:26.016Z,13.80
2017-12-06T21:41:53.608Z,16.20
2017-12-06T21:44:21.585Z,15.13
2017-12-06T21:46:49.154Z,13.60
2017-12-06T21:49:16.716Z,14.77
2017-12-06T21:51:44.285Z,14.20
2017-12-06T21:54:11.852Z,15.73
2017-12-06T21:59:13.245Z,14.53
2017-12-06T22:01:40.747Z,14.67
2017-12-06T22:04:08.314Z,14.53
2017-12-06T22:06:35.941Z,14.13
2017-12-06T22:09:03.789Z,14.40
2017-12-06T22:11:31.359Z,15.23
2017-12-06T22:13:58.948Z,15.10
2017-12-06T22:16:26.495Z,13.90
2017-12-06T22:18:54.032Z,15.00
2017-12-06T22:21:21.627Z,15.70
2017-12-06T22:23:49.184Z,16.70
2017-12-06T22:26:16.737Z,15.80
2017-12-06T22:28:44.349Z,14.70
2017-12-06T22:31:11.894Z,17.83
2017-12-06T22:33:39.483Z,15.83
2017-12-06T22:36:07.216Z,16.87
2017-12-06T22:38:34.786Z,15.80
2017-12-06T22:41:02.363Z,15.63
2017-12-06T22:43:29.925Z,14.80
2017-12-06T22:45:57.480Z,16.73
2017-12-06T22:48:25.075Z,15.13
2017-12-06T22:50:52.688Z,15.07
2017-12-06T22:53:20.253Z,16.00
2017-12-06T22:55:47.824Z,16.63
2017-12-06T22:58:15.401Z,16.40
2017-12-06T23:00:42.954Z,16.10
2017-12-06T23:03:10.780Z,16.80
2017-12-06T23:05:38.353Z,15.40
2017-12-06T23:08:05.908Z,16.60
2017-12-06T23:10:33.530Z,15.70
2017-12-06T23:13:01.165Z,15.70
2017-12-06T23:15:28.777Z,16.90
2017-12-06T23:17:56.376Z,16.67
2017-12-06T23:20:23.948Z,16.37
2017-12-06T23:22:51.514Z,16.70
2017-12-06T23:25:19.205Z,17.00
2017-12-06T23:27:46.803Z,16.83
2017-12-06T23:30:14.392Z,17.53
2017-12-06T23:32:41.967Z,18.40
2017-12-06T23:35:09.649Z,18.63
2017-12-06T23:37:37.221Z,16.67
2017-12-06T23:40:05.325Z,16.07
2017-12-06T23:42:32.915Z,17.80
2017-12-06T23:45:00.449Z,20.27
2017-12-06T23:47:28.063Z,16.80
2017-12-06T23:49:55.637Z,17.20
2017-12-06T23:52:23.194Z,17.73
2017-12-06T23:54:50.746Z,17.70
2017-12-06T23:57:18.313Z,15.20
2017-12-06T23:59:45.885Z,19.50
